Time;durP1;ratioP1;P1;durP2;ratioP2;P2;SDS_P1;SDS_P2;PMS_P1;PMS_P2;Temp;Humidity;BMP_temperature;BMP_pressure;BME280_temperature;BME280_humidity;BME280_pressure;Samples;Min_cycle;Max_cycle;Signal;HPM_P1;HPM_P2
2023/02/22 00:00:44;;;;;;;;;;;;;;;13.05;61.84;100805.66;5096139;28;20043;-69
2023/02/22 00:03:14;;;;;;;28.63;15.85;;;;;;;13.12;61.84;100822.56;5105062;28;19920;-72
2023/02/22 00:05:46;;;;;;;26.55;15.95;;;;;;;13.15;61.67;100810.84;5112278;28;20051;-69
2023/02/22 00:08:15;;;;;;;24.10;15.73;;;;;;;13.10;61.74;100811.03;5114601;28;20075;-70
2023/02/22 00:10:43;;;;;;;27.35;16.58;;;;;;;13.07;62.28;100803.41;5110707;28;20063;-69
2023/02/22 00:13:13;;;;;;;26.40;15.90;;;;;;;13.16;61.99;100802.22;5116823;28;20055;-71
2023/02/22 00:15:40;;;;;;;31.13;16.48;;;;;;;13.07;62.25;100795.91;5114851;28;20635;-70
2023/02/22 00:18:10;;;;;;;24.60;16.55;;;;;;;13.17;61.89;100792.81;5097894;28;20051;-70
2023/02/22 00:20:38;;;;;;;26.48;17.15;;;;;;;13.03;62.13;100792.19;5097740;28;20043;-70
2023/02/22 00:23:08;;;;;;;32.00;19.02;;;;;;;13.00;62.65;100783.69;5094124;28;20055;-70
2023/02/22 00:25:35;;;;;;;24.60;16.58;;;;;;;13.01;62.48;100782.53;5114211;28;20048;-69
2023/02/22 00:28:03;;;;;;;44.35;25.55;;;;;;;13.07;62.54;100784.84;5098763;28;20044;-68
2023/02/22 00:30:32;;;;;;;30.77;18.50;;;;;;;13.03;62.57;100786.66;5097802;28;20056;-70
2023/02/22 00:33:00;;;;;;;31.30;16.67;;;;;;;13.02;62.63;100781.44;5114283;28;20059;-71
2023/02/22 00:35:29;;;;;;;36.42;22.73;;;;;;;13.17;62.02;100778.97;5115924;28;20043;-71
2023/02/22 00:37:59;;;;;;;29.15;16.50;;;;;;;13.14;62.21;100776.88;5114900;28;20070;-70
2023/02/22 00:40:32;;;;;;;27.50;16.85;;;;;;;13.06;62.87;100774.91;5116092;28;20056;-69
2023/02/22 00:43:02;;;;;;;43.10;23.58;;;;;;;13.18;62.52;100766.75;5098896;28;20059;-70
2023/02/22 00:45:31;;;;;;;26.38;16.88;;;;;;;13.07;62.61;100771.03;5097368;28;20071;-70
2023/02/22 00:48:00;;;;;;;29.48;16.92;;;;;;;13.10;62.55;100766.78;5116775;28;20048;-71
2023/02/22 00:50:29;;;;;;;24.77;16.23;;;;;;;13.02;62.99;100773.94;5115807;28;20487;-69
2023/02/22 00:52:58;;;;;;;24.25;16.48;;;;;;;12.90;63.41;100770.22;5098923;28;20050;-72
2023/02/22 00:55:31;;;;;;;26.92;16.85;;;;;;;12.91;63.40;100763.53;5067032;28;20055;-71
2023/02/22 00:58:00;;;;;;;25.52;16.20;;;;;;;12.98;63.61;100764.66;5119924;28;20519;-70
2023/02/22 01:00:34;;;;;;;24.85;17.15;;;;;;;13.05;63.13;100759.47;5119561;28;20044;-71
2023/02/22 01:03:02;;;;;;;29.05;16.83;;;;;;;13.06;63.58;100757.50;5120128;28;20513;-70
2023/02/22 01:05:30;;;;;;;30.33;17.63;;;;;;;13.03;63.62;100750.69;5119592;27;20059;-70
2023/02/22 01:07:59;;;;;;;24.20;16.52;;;;;;;12.88;63.89;100745.66;5101237;28;20058;-70
2023/02/22 01:10:28;;;;;;;24.73;16.88;;;;;;;12.85;64.04;100745.50;5119457;28;20039;-70
2023/02/22 01:12:56;;;;;;;30.75;17.17;;;;;;;12.88;64.05;100756.72;5101287;28;20482;-69
2023/02/22 01:15:27;;;;;;;29.02;16.98;;;;;;;13.00;63.80;100747.75;5119509;28;20490;-70
2023/02/22 01:17:57;;;;;;;26.83;17.23;;;;;;;12.77;64.36;100749.91;5119739;28;20043;-71
2023/02/22 01:20:25;;;;;;;28.98;17.25;;;;;;;12.88;64.28;100747.59;5101039;28;20048;-69
2023/02/22 01:22:55;;;;;;;28.23;16.77;;;;;;;12.93;64.41;100750.19;5100542;28;20051;-69
2023/02/22 01:25:26;;;;;;;26.50;16.50;;;;;;;12.97;63.91;100754.72;5118945;28;20414;-70
2023/02/22 01:27:54;;;;;;;27.25;16.85;;;;;;;12.89;64.34;100746.47;5084363;28;20074;-71
2023/02/22 01:30:25;;;;;;;26.08;16.38;;;;;;;12.91;64.26;100741.41;5100860;28;20051;-69
2023/02/22 01:32:53;;;;;;;26.58;16.63;;;;;;;12.93;64.20;100739.97;5119127;28;20407;-70
2023/02/22 01:35:27;;;;;;;30.25;17.63;;;;;;;12.84;64.41;100741.09;5101224;28;20520;-71
2023/02/22 01:37:56;;;;;;;30.13;18.70;;;;;;;12.78;64.47;100734.13;5100866;28;20054;-70
2023/02/22 01:40:36;;;;;;;28.83;18.00;;;;;;;12.91;64.30;100735.88;5099464;28;20054;-71
2023/02/22 01:43:33;;;;;;;29.30;18.02;;;;;;;12.78;64.70;100734.94;5084346;28;20055;-70
2023/02/22 01:46:06;;;;;;;25.30;17.52;;;;;;;12.78;64.76;100729.41;5117518;28;20058;-70
2023/02/22 01:48:41;;;;;;;27.15;19.38;;;;;;;12.64;65.20;100739.03;5101357;28;20458;-65
2023/02/22 01:51:12;;;;;;;32.08;19.20;;;;;;;12.67;64.94;100735.59;5117998;28;20055;-65
2023/02/22 01:53:46;;;;;;;30.85;19.55;;;;;;;12.47;65.47;100748.13;5084445;28;20055;-65
2023/02/22 01:56:14;;;;;;;31.70;19.85;;;;;;;12.33;66.29;100747.47;5117311;28;20059;-65
2023/02/22 01:58:45;;;;;;;31.38;21.02;;;;;;;12.15;66.69;100752.16;5101065;28;20419;-65
2023/02/22 02:01:13;;;;;;;33.38;20.75;;;;;;;12.33;66.59;100747.47;5098752;28;20047;-64
2023/02/22 02:03:41;;;;;;;33.97;20.38;;;;;;;12.28;66.83;100742.09;5101146;28;20406;-65
2023/02/22 02:06:12;;;;;;;37.15;22.42;;;;;;;12.33;66.65;100736.41;5116112;28;20134;-65
2023/02/22 02:08:50;;;;;;;31.35;20.73;;;;;;;12.32;66.60;100734.81;5080683;28;20063;-66
2023/02/22 02:11:21;;;;;;;30.35;21.75;;;;;;;12.32;66.55;100729.28;5078216;28;20047;-65
2023/02/22 02:13:51;;;;;;;36.70;22.33;;;;;;;12.31;66.42;100725.69;5080999;28;20040;-65
2023/02/22 02:16:21;;;;;;;34.22;22.10;;;;;;;12.50;66.06;100727.34;5078621;28;20048;-65
2023/02/22 02:18:49;;;;;;;33.63;22.10;;;;;;;12.25;66.37;100727.00;5079063;28;20048;-70
2023/02/22 02:21:23;;;;;;;34.72;21.90;;;;;;;12.19;66.99;100721.94;5061584;28;20051;-72
2023/02/22 02:24:21;;;;;;;37.83;21.80;;;;;;;12.16;67.04;100722.59;5064066;28;20052;-67
2023/02/22 02:26:48;;;;;;;35.33;21.80;;;;;;;12.29;66.90;100722.44;5078653;28;20043;-65
2023/02/22 02:29:37;;;;;;;31.73;22.17;;;;;;;12.26;66.70;100722.28;5098451;28;20040;-65
2023/02/22 02:32:04;;;;;;;34.33;22.10;;;;;;;11.94;67.52;100718.03;5095839;28;20052;-65
2023/02/22 02:34:38;;;;;;;33.15;22.83;;;;;;;11.94;67.97;100709.75;5097796;28;20110;-65
2023/02/22 02:37:30;;;;;;;33.55;22.27;;;;;;;12.00;67.81;100718.69;5064015;28;20504;-65
2023/02/22 02:40:11;;;;;;;33.15;21.50;;;;;;;12.04;67.69;100722.44;5059640;28;20415;-65
2023/02/22 02:42:49;;;;;;;33.22;22.63;;;;;;;11.98;68.06;100712.66;5096795;28;20059;-64
2023/02/22 02:45:22;;;;;;;34.50;21.80;;;;;;;11.99;67.91;100706.03;5113014;28;20055;-64
2023/02/22 02:47:57;;;;;;;33.13;22.25;;;;;;;12.05;67.98;100713.81;5068194;28;20052;-64
2023/02/22 02:50:28;;;;;;;37.45;23.08;;;;;;;11.96;68.16;100707.47;5062791;28;20052;-65
2023/02/22 02:52:59;;;;;;;34.55;22.38;;;;;;;11.79;69.05;100701.09;5062508;28;20051;-64
2023/02/22 02:55:28;;;;;;;33.70;21.98;;;;;;;11.90;68.99;100705.19;5061447;28;20060;-64
2023/02/22 02:57:56;;;;;;;35.35;22.05;;;;;;;12.04;68.41;100700.34;5112690;28;20052;-66
2023/02/22 03:00:29;;;;;;;33.47;21.08;;;;;;;12.12;68.15;100699.53;5096799;28;20048;-66
2023/02/22 03:03:06;;;;;;;35.65;21.77;;;;;;;12.04;68.37;100698.41;5062435;28;20055;-66
2023/02/22 03:06:01;;;;;;;30.80;21.20;;;;;;;11.86;69.04;100698.69;5046347;28;20088;-66
2023/02/22 03:08:34;;;;;;;30.13;21.20;;;;;;;12.02;68.59;100697.09;5090805;28;20064;-66
2023/02/22 03:11:13;;;;;;;34.42;21.85;;;;;;;12.14;68.16;100700.03;5085895;28;20039;-65
2023/02/22 03:13:55;;;;;;;29.73;20.65;;;;;;;12.04;68.55;100694.81;5116180;28;20047;-65
2023/02/22 03:16:28;;;;;;;32.38;20.73;;;;;;;11.80;69.51;100702.75;5115830;28;20483;-65
2023/02/22 03:19:18;;;;;;;28.02;20.38;;;;;;;12.03;68.91;100701.50;5115967;28;20059;-65
2023/02/22 03:21:54;;;;;;;29.08;20.95;;;;;;;11.89;69.10;100698.06;5106416;28;20048;-65
2023/02/22 03:24:37;;;;;;;32.28;21.70;;;;;;;11.85;69.42;100689.63;5117751;28;20047;-65
2023/02/22 03:27:20;;;;;;;30.02;21.23;;;;;;;11.75;69.91;100684.38;5110383;28;20051;-65
2023/02/22 03:29:53;;;;;;;30.88;21.35;;;;;;;11.90;69.27;100683.13;5099691;28;20600;-65
2023/02/22 03:32:24;;;;;;;34.90;21.67;;;;;;;11.86;69.40;100684.88;5098105;28;20165;-65
2023/02/22 03:34:56;;;;;;;30.70;20.73;;;;;;;11.78;69.43;100685.69;5099517;28;20059;-66
2023/02/22 03:37:33;;;;;;;32.53;21.48;;;;;;;11.79;69.86;100679.03;5098488;28;20051;-65
2023/02/22 03:40:12;;;;;;;32.72;21.65;;;;;;;11.80;69.74;100667.66;5115769;28;20044;-65
2023/02/22 03:42:45;;;;;;;31.95;20.33;;;;;;;11.91;68.92;100677.28;5114700;28;20066;-64
2023/02/22 03:45:15;;;;;;;32.70;20.90;;;;;;;11.94;69.29;100670.31;5099002;28;20114;-65
2023/02/22 03:48:09;;;;;;;29.60;19.73;;;;;;;12.05;68.71;100677.13;5114433;28;20058;-65
2023/02/22 03:50:37;;;;;;;30.33;20.38;;;;;;;11.97;68.74;100677.94;5080636;28;20058;-63
2023/02/22 03:53:06;;;;;;;29.00;19.87;;;;;;;11.88;69.49;100682.63;5116872;28;20059;-64
2023/02/22 03:55:36;;;;;;;;;;;;;;;11.98;69.05;100672.09;5114118;28;20304;-65
2023/02/22 03:58:08;;;;;;;30.98;20.05;;;;;;;11.98;69.12;100665.75;5098906;28;19926;-65
2023/02/22 04:00:37;;;;;;;28.88;20.13;;;;;;;12.10;68.63;100663.19;5079931;28;20407;-64
2023/02/22 04:03:04;;;;;;;28.17;19.60;;;;;;;12.02;68.70;100656.50;5097802;28;20055;-64
2023/02/22 04:05:32;;;;;;;26.58;20.08;;;;;;;11.96;68.59;100655.03;5097758;28;20048;-65
2023/02/22 04:07:59;;;;;;;31.88;19.50;;;;;;;11.81;69.44;100654.69;5109232;28;20445;-65
2023/02/22 04:10:27;;;;;;;34.10;19.50;;;;;;;11.96;69.07;100651.47;5097475;28;20043;-65
2023/02/22 04:12:54;;;;;;;27.73;19.77;;;;;;;12.10;68.45;100647.41;5060713;28;20056;-65
2023/02/22 04:15:23;;;;;;;26.15;19.23;;;;;;;12.07;68.58;100655.53;5077545;28;20056;-65
2023/02/22 04:17:55;;;;;;;28.27;19.95;;;;;;;11.89;69.05;100651.94;5078230;28;20048;-65
2023/02/22 04:20:24;;;;;;;27.38;19.70;;;;;;;11.86;69.49;100654.53;5095984;28;20055;-64
2023/02/22 04:23:03;;;;;;;32.45;21.15;;;;;;;11.74;69.56;100659.88;5077313;28;20063;-64
2023/02/22 04:25:31;;;;;;;31.02;19.98;;;;;;;11.80;69.57;100655.84;5077624;28;20043;-64
2023/02/22 04:28:10;;;;;;;32.53;21.33;;;;;;;11.75;69.61;100656.00;5097380;28;20048;-64
2023/02/22 04:30:44;;;;;;;28.95;21.58;;;;;;;11.74;69.64;100662.63;5064511;28;20044;-65
2023/02/22 04:33:15;;;;;;;34.78;21.80;;;;;;;11.50;70.44;100659.47;5082143;28;20407;-64
2023/02/22 04:35:42;;;;;;;31.70;21.70;;;;;;;11.57;70.59;100665.34;5080921;28;20048;-64
2023/02/22 04:38:10;;;;;;;31.75;21.92;;;;;;;11.62;70.26;100671.53;5100094;28;20071;-66
2023/02/22 04:40:39;;;;;;;35.42;21.95;;;;;;;11.65;69.97;100668.13;5080248;28;20043;-65
2023/02/22 04:43:07;;;;;;;32.72;22.23;;;;;;;11.74;70.05;100679.19;5082697;28;20044;-65
2023/02/22 04:45:35;;;;;;;29.55;21.00;;;;;;;11.77;70.08;100678.56;5080453;28;20766;-65
2023/02/22 04:48:04;;;;;;;36.15;21.95;;;;;;;11.62;70.22;100676.22;5081153;28;20048;-66
2023/02/22 04:50:31;;;;;;;35.05;22.02;;;;;;;11.65;70.16;100673.66;5080241;28;20417;-66
2023/02/22 04:52:59;;;;;;;30.70;21.20;;;;;;;11.68;70.23;100674.97;5081165;28;20067;-67
2023/02/22 04:55:27;;;;;;;34.20;21.25;;;;;;;11.65;70.66;100672.84;5081334;28;20138;-65
2023/02/22 04:57:55;;;;;;;29.60;20.20;;;;;;;11.86;69.92;100673.84;5081280;28;20052;-65
2023/02/22 05:00:23;;;;;;;29.95;20.83;;;;;;;11.62;70.65;100674.28;5064120;28;20043;-65
2023/02/22 05:02:55;;;;;;;29.95;20.98;;;;;;;11.65;70.49;100684.69;5099292;28;20044;-66
2023/02/22 05:05:22;;;;;;;32.50;20.00;;;;;;;11.64;70.39;100682.22;5100498;28;20383;-64
2023/02/22 05:07:49;;;;;;;29.98;19.83;;;;;;;11.51;71.40;100678.47;5106586;28;20059;-64
2023/02/22 05:10:18;;;;;;;28.63;19.50;;;;;;;11.69;71.00;100679.34;5119763;28;20067;-66
2023/02/22 05:12:47;;;;;;;32.40;19.63;;;;;;;11.74;70.33;100682.78;5118769;28;20055;-65
2023/02/22 05:15:16;;;;;;;29.02;20.02;;;;;;;11.75;70.84;100680.84;5084231;28;20055;-65
2023/02/22 05:17:44;;;;;;;28.17;20.15;;;;;;;11.66;71.29;100686.34;5083567;28;20475;-65
2023/02/22 05:20:20;;;;;;;28.75;20.58;;;;;;;11.68;71.11;100691.53;5119976;28;20052;-66
2023/02/22 05:22:48;;;;;;;27.45;20.67;;;;;;;11.54;72.02;100682.53;5100835;28;20055;-64
2023/02/22 05:25:16;;;;;;;26.48;20.10;;;;;;;11.63;71.64;100686.13;5100996;28;20055;-67
2023/02/22 05:27:43;;;;;;;26.52;19.42;;;;;;;11.75;71.47;100676.09;5100648;28;20055;-66
2023/02/22 05:30:11;;;;;;;30.20;19.75;;;;;;;11.68;71.43;100667.50;5101668;28;20051;-66
2023/02/22 05:32:38;;;;;;;25.83;19.50;;;;;;;11.53;72.34;100664.34;5099878;28;20051;-66
2023/02/22 05:35:07;;;;;;;30.00;21.17;;;;;;;11.55;72.60;100665.66;5119865;28;20047;-66
2023/02/22 05:37:35;;;;;;;26.90;20.27;;;;;;;11.53;72.44;100664.34;5100760;28;20044;-65
2023/02/22 05:40:03;;;;;;;27.20;19.92;;;;;;;11.83;71.61;100663.47;5118792;28;20059;-64
2023/02/22 05:42:30;;;;;;;28.13;20.45;;;;;;;11.53;72.39;100659.66;5100028;28;20052;-66
2023/02/22 05:44:59;;;;;;;31.38;20.27;;;;;;;11.63;72.57;100672.34;5119138;28;20056;-65
2023/02/22 05:47:26;;;;;;;30.20;20.40;;;;;;;11.73;72.46;100681.16;5082194;28;20052;-65
2023/02/22 05:49:54;;;;;;;28.48;20.45;;;;;;;11.75;71.80;100678.88;5119737;28;20047;-66
2023/02/22 05:52:21;;;;;;;29.50;20.20;;;;;;;11.66;72.22;100668.97;5117899;28;20048;-65
2023/02/22 05:54:49;;;;;;;30.33;20.15;;;;;;;11.48;73.01;100667.25;5084082;28;20047;-67
2023/02/22 05:57:17;;;;;;;31.70;21.30;;;;;;;11.62;73.02;100665.19;5082988;28;20066;-65
2023/02/22 05:59:44;;;;;;;26.73;20.55;;;;;;;11.62;72.90;100676.22;5118404;28;20048;-66
2023/02/22 06:02:12;;;;;;;28.08;20.75;;;;;;;11.68;72.99;100683.25;5099535;28;20411;-66
2023/02/22 06:04:39;;;;;;;30.42;20.08;;;;;;;11.79;72.95;100674.34;5100455;28;20054;-66
2023/02/22 06:07:06;;;;;;;26.92;20.08;;;;;;;11.94;72.38;100676.63;5117517;28;20043;-64
2023/02/22 06:09:34;;;;;;;25.42;20.58;;;;;;;11.77;72.75;100684.09;5119178;28;20062;-64
2023/02/22 06:12:01;;;;;;;28.90;20.95;;;;;;;11.42;73.93;100687.84;5116998;28;20051;-66
2023/02/22 06:14:29;;;;;;;31.88;21.27;;;;;;;11.42;74.27;100683.13;5118737;28;20051;-66
2023/02/22 06:16:57;;;;;;;30.85;20.95;;;;;;;11.49;74.23;100679.94;5117917;28;20047;-69
2023/02/22 06:19:28;;;;;;;30.60;21.52;;;;;;;11.49;74.41;100668.91;5102355;28;20059;-67
2023/02/22 06:21:58;;;;;;;27.35;20.90;;;;;;;11.35;74.49;100664.31;5117641;28;20039;-66
2023/02/22 06:24:26;;;;;;;;;;;;;;;11.37;74.84;100668.69;5084322;28;20051;-65
2023/02/22 06:26:55;;;;;;;28.33;21.67;;;;;;;11.26;75.65;100676.44;5098738;28;19926;-65
2023/02/22 06:29:24;;;;;;;30.85;21.48;;;;;;;11.31;75.58;100676.31;5100171;28;20047;-66
2023/02/22 06:31:51;;;;;;;35.33;21.75;;;;;;;11.13;76.54;100680.94;5117474;28;20040;-64
2023/02/22 06:34:20;;;;;;;35.88;22.73;;;;;;;11.14;76.71;100679.78;5079696;28;20047;-65
2023/02/22 06:36:48;;;;;;;31.27;22.95;;;;;;;11.38;75.81;100674.69;5118471;27;20039;-65
2023/02/22 06:39:15;;;;;;;28.45;22.50;;;;;;;11.19;76.26;100682.41;5118586;28;20059;-65
2023/02/22 06:41:43;;;;;;;34.15;21.92;;;;;;;11.26;77.03;100684.72;5098937;28;20062;-64
2023/02/22 06:44:13;;;;;;;29.73;22.20;;;;;;;11.22;76.74;100680.97;5110273;28;20048;-66
2023/02/22 06:46:48;;;;;;;30.30;22.98;;;;;;;11.13;77.51;100693.91;5112655;28;20051;-67
2023/02/22 06:49:17;;;;;;;31.60;22.85;;;;;;;11.11;77.77;100698.91;5118656;28;20058;-65
2023/02/22 06:51:45;;;;;;;31.70;23.77;;;;;;;11.09;77.38;100703.91;5078027;28;20047;-65
2023/02/22 06:54:13;;;;;;;33.88;23.85;;;;;;;11.22;77.42;100703.84;5082005;28;20051;-64
2023/02/22 06:56:41;;;;;;;31.27;24.63;;;;;;;11.06;77.92;100712.84;5094132;28;20387;-68
2023/02/22 06:59:08;;;;;;;33.53;25.05;;;;;;;10.97;78.19;100710.03;5113938;28;20043;-67
2023/02/22 07:01:36;;;;;;;32.83;24.42;;;;;;;10.97;78.72;100701.75;5114431;28;20059;-69
2023/02/22 07:04:03;;;;;;;34.35;23.77;;;;;;;10.93;78.93;100695.25;5118070;28;20042;-70
2023/02/22 07:06:31;;;;;;;32.38;24.77;;;;;;;10.93;79.59;100691.69;5074676;28;20043;-67
2023/02/22 07:08:58;;;;;;;34.38;24.90;;;;;;;10.86;79.37;100705.13;5098945;28;20129;-65
2023/02/22 07:11:25;;;;;;;38.55;24.63;;;;;;;10.92;79.29;100712.94;5096160;28;20039;-68
2023/02/22 07:13:54;;;;;;;39.15;27.15;;;;;;;10.95;79.24;100708.72;5096778;28;20044;-70
2023/02/22 07:16:21;;;;;;;35.60;25.52;;;;;;;10.88;80.01;100713.88;5078472;28;20059;-67
2023/02/22 07:18:49;;;;;;;36.40;25.98;;;;;;;10.57;81.05;100719.34;5061418;28;20048;-67
2023/02/22 07:21:17;;;;;;;35.90;25.27;;;;;;;10.65;81.46;100728.81;5087921;28;20510;-65
2023/02/22 07:23:53;;;;;;;38.88;26.10;;;;;;;11.09;83.17;100737.81;5078917;28;20371;-69
2023/02/22 07:26:21;;;;;;;38.63;25.83;;;;;;;11.50;83.87;100734.78;5095407;28;20063;-71
2023/02/22 07:28:49;;;;;;;37.72;26.85;;;;;;;11.14;80.22;100745.16;5086338;28;20044;-65
2023/02/22 07:31:17;;;;;;;38.28;27.60;;;;;;;10.83;80.73;100742.38;5076420;28;20058;-65
2023/02/22 07:33:46;;;;;;;43.47;28.67;;;;;;;10.60;81.82;100732.47;5096835;28;20071;-65
2023/02/22 07:36:16;;;;;;;42.47;29.20;;;;;;;10.30;83.15;100732.41;5094985;28;20044;-64
2023/02/22 07:38:44;;;;;;;43.20;29.58;;;;;;;10.60;83.06;100748.22;5075739;28;20755;-66
2023/02/22 07:41:12;;;;;;;43.13;29.50;;;;;;;10.55;83.05;100754.63;5076206;28;20048;-66
2023/02/22 07:43:39;;;;;;;42.63;30.25;;;;;;;10.37;84.15;100763.06;5102059;28;20476;-64
2023/02/22 07:46:07;;;;;;;42.88;29.92;;;;;;;10.33;84.61;100759.31;5090964;28;20051;-64
2023/02/22 07:48:34;;;;;;;44.42;31.08;;;;;;;10.31;84.94;100754.13;5107428;28;20044;-65
2023/02/22 07:51:01;;;;;;;43.70;30.58;;;;;;;10.42;84.63;100769.28;5101855;28;20055;-65
2023/02/22 07:53:31;;;;;;;40.33;30.20;;;;;;;10.52;84.28;100755.28;5076538;28;20044;-64
2023/02/22 07:56:00;;;;;;;51.60;31.27;;;;;;;10.56;84.07;100749.94;5098692;28;20075;-64
2023/02/22 07:58:46;;;;;;;46.33;30.58;;;;;;;10.58;84.01;100753.22;5088646;28;20062;-68
2023/02/22 08:01:34;;;;;;;42.97;30.92;;;;;;;10.74;83.89;100765.50;5075381;28;20062;-66
2023/02/22 08:04:04;;;;;;;43.05;31.52;;;;;;;10.82;83.40;100765.56;5094177;28;20063;-66
2023/02/22 08:06:31;;;;;;;42.92;31.83;;;;;;;10.94;82.68;100760.28;5094345;28;20771;-63
2023/02/22 08:08:59;;;;;;;45.55;31.90;;;;;;;11.10;82.66;100758.75;5118316;27;20055;-65
2023/02/22 08:11:26;;;;;;;43.25;32.03;;;;;;;11.13;82.76;100758.13;5119438;27;20344;-65
2023/02/22 08:13:54;;;;;;;48.75;35.38;;;;;;;11.32;82.26;100746.84;5120231;27;20043;-66
2023/02/22 08:16:21;;;;;;;52.97;35.05;;;;;;;11.42;81.75;100759.56;5081112;28;20375;-66
2023/02/22 08:18:48;;;;;;;48.25;33.38;;;;;;;11.97;82.72;100758.81;5105196;27;20055;-37
2023/02/22 08:21:16;;;;;;;41.20;31.05;;;;;;;12.22;79.35;100758.00;5113194;27;20046;-37
2023/02/22 08:23:50;;;;;;;41.65;30.80;;;;;;;12.35;77.81;100751.53;5116299;28;20483;-65
2023/02/22 08:26:19;;;;;;;45.20;33.13;;;;;;;11.77;78.78;100753.06;5117227;27;20047;-64
2023/02/22 08:28:47;;;;;;;50.40;33.70;;;;;;;11.52;80.02;100756.50;5134445;27;20035;-65
2023/02/22 08:31:14;;;;;;;51.08;35.78;;;;;;;10.92;82.96;100765.28;5122777;27;20445;-65
2023/02/22 08:33:46;;;;;;;50.00;35.08;;;;;;;10.70;85.27;100770.00;5108991;27;20516;-65
2023/02/22 08:36:14;;;;;;;49.88;36.72;;;;;;;10.59;85.46;100774.09;5100886;28;20486;-65
2023/02/22 08:38:42;;;;;;;51.35;36.65;;;;;;;10.74;85.47;100771.78;5128093;27;20043;-65
2023/02/22 08:41:09;;;;;;;52.58;35.15;;;;;;;10.80;85.36;100780.75;5100150;28;20048;-65
2023/02/22 08:43:37;;;;;;;49.25;35.70;;;;;;;10.73;86.00;100781.19;5125864;27;20046;-67
2023/02/22 08:46:04;;;;;;;51.67;36.20;;;;;;;10.72;86.05;100789.78;5077948;28;20432;-65
2023/02/22 08:48:32;;;;;;;50.85;37.28;;;;;;;10.48;87.17;100792.81;5118140;28;20062;-64
2023/02/22 08:50:59;;;;;;;56.30;37.95;;;;;;;10.61;87.12;100793.91;5099172;27;20071;-67
2023/02/22 08:53:26;;;;;;;51.97;36.72;;;;;;;10.82;86.29;100801.38;5137053;27;20035;-64
2023/02/22 08:55:54;;;;;;;52.50;36.60;;;;;;;11.08;84.54;100793.28;5109018;27;20055;-68
2023/02/22 08:58:22;;;;;;;50.67;36.88;;;;;;;11.22;83.28;100783.81;5137351;27;20046;-66
2023/02/22 09:00:50;;;;;;;52.60;37.35;;;;;;;11.33;82.77;100776.88;5127489;27;20055;-64
2023/02/22 09:03:17;;;;;;;50.90;36.63;;;;;;;11.51;81.92;100779.69;5118940;27;20467;-64
2023/02/22 09:05:45;;;;;;;56.45;38.97;;;;;;;11.16;82.44;100785.06;5125920;27;20418;-66
2023/02/22 09:08:14;;;;;;;47.85;36.20;;;;;;;10.95;83.84;100783.94;5088151;27;20045;-65
2023/02/22 09:10:44;;;;;;;51.55;36.97;;;;;;;10.87;84.56;100787.47;5110607;27;20046;-65
2023/02/22 09:13:12;;;;;;;54.65;37.00;;;;;;;10.67;85.38;100790.69;5123750;27;20156;-64
2023/02/22 09:15:39;;;;;;;56.08;39.03;;;;;;;11.16;84.55;100786.97;5110646;27;20054;-65
2023/02/22 09:18:09;;;;;;;50.28;36.53;;;;;;;11.06;83.83;100788.06;5095743;27;20052;-64
2023/02/22 09:20:37;;;;;;;52.55;36.65;;;;;;;11.29;82.97;100800.72;5114950;27;20047;-65
2023/02/22 09:23:22;;;;;;;53.83;36.17;;;;;;;11.30;82.75;100801.50;5101842;27;20406;-65
2023/02/22 09:25:50;;;;;;;48.03;34.88;;;;;;;11.28;82.08;100810.09;5128233;27;20115;-65
2023/02/22 09:28:18;;;;;;;50.95;35.78;;;;;;;11.06;83.39;100801.84;5132449;27;20047;-65
2023/02/22 09:30:46;;;;;;;50.85;35.22;;;;;;;11.06;83.52;100803.78;5131224;27;20746;-66
2023/02/22 09:33:16;;;;;;;53.00;37.88;;;;;;;11.06;83.49;100793.59;5094954;28;20044;-66
2023/02/22 09:35:45;;;;;;;49.63;34.05;;;;;;;11.20;82.97;100785.22;5093123;28;20051;-65
2023/02/22 09:38:15;;;;;;;48.25;33.97;;;;;;;11.22;82.62;100778.28;5091197;27;20047;-66
2023/02/22 09:40:48;;;;;;;;;;;;;;;10.97;83.15;100780.88;5103847;28;20047;-66
2023/02/22 09:43:36;;;;;;;50.60;34.17;;;;;;;10.66;84.67;100785.50;5097318;28;19924;-66
2023/02/22 09:46:27;;;;;;;53.38;35.63;;;;;;;10.98;84.32;100791.56;5115297;28;20046;-64
2023/02/22 09:49:06;;;;;;;47.88;34.95;;;;;;;10.97;84.02;100794.66;5094835;27;20052;-65
2023/02/22 09:51:38;;;;;;;47.85;34.70;;;;;;;11.27;83.45;100782.84;5074918;27;20050;-65
2023/02/22 09:54:16;;;;;;;51.83;34.58;;;;;;;11.30;82.45;100785.78;5133312;27;20039;-65
2023/02/22 09:56:45;;;;;;;49.80;34.47;;;;;;;11.16;82.05;100789.75;5108899;27;20055;-65
2023/02/22 09:59:19;;;;;;;50.50;36.40;;;;;;;10.98;83.52;100788.81;5131874;27;20051;-65
2023/02/22 10:01:54;;;;;;;51.03;34.88;;;;;;;11.07;83.33;100788.91;5123611;27;20054;-65
2023/02/22 10:04:40;;;;;;;51.58;36.55;;;;;;;11.25;82.77;100785.91;5108117;27;20051;-65
2023/02/22 10:07:31;;;;;;;49.60;36.85;;;;;;;11.23;82.70;100790.09;5123963;27;20055;-66
2023/02/22 10:10:05;;;;;;;49.38;35.33;;;;;;;11.36;82.21;100791.97;5134177;27;20055;-65
2023/02/22 10:12:38;;;;;;;47.85;34.88;;;;;;;11.18;82.73;100799.34;5076386;27;20047;-64
2023/02/22 10:15:39;;;;;;;48.90;34.92;;;;;;;11.18;82.86;100791.06;5124392;27;20039;-65
2023/02/22 10:18:20;;;;;;;55.35;35.67;;;;;;;11.25;82.66;100790.59;5069384;28;20056;-66
2023/02/22 10:21:09;;;;;;;57.55;36.10;;;;;;;11.40;81.72;100781.13;5113493;27;20056;-65
2023/02/22 10:23:41;;;;;;;54.58;36.30;;;;;;;11.56;80.62;100787.84;5112241;28;20044;-65
2023/02/22 10:26:16;;;;;;;51.20;35.03;;;;;;;11.48;81.24;100792.19;5107981;27;20051;-64
2023/02/22 10:29:02;;;;;;;51.38;34.72;;;;;;;11.39;81.49;100791.34;5109990;28;20039;-64
2023/02/22 10:31:34;;;;;;;50.05;34.15;;;;;;;11.57;80.99;100793.06;5093111;27;20051;-65
2023/02/22 10:34:12;;;;;;;52.80;34.70;;;;;;;11.46;80.01;100794.44;5092106;28;20067;-63
2023/02/22 10:36:41;;;;;;;49.72;35.75;;;;;;;11.13;82.18;100791.19;5091750;28;20047;-67
2023/02/22 10:39:27;;;;;;;53.25;36.72;;;;;;;11.07;82.68;100791.66;5115162;27;20050;-68
2023/02/22 10:41:57;;;;;;;52.35;35.22;;;;;;;11.05;83.33;100793.91;5072003;28;20071;-63
2023/02/22 10:44:24;;;;;;;52.93;35.87;;;;;;;11.24;82.66;100789.78;5109667;28;20044;-65
2023/02/22 10:46:52;;;;;;;46.92;35.28;;;;;;;11.37;82.31;100790.84;5112925;27;20757;-64
2023/02/22 10:49:22;;;;;;;50.15;35.20;;;;;;;11.41;81.62;100794.59;5099432;28;20044;-64
2023/02/22 10:52:00;;;;;;;48.80;36.00;;;;;;;11.34;81.78;100800.56;5100626;27;20485;-66
2023/02/22 10:54:31;;;;;;;46.67;34.55;;;;;;;11.42;81.74;100796.22;5133751;27;20477;-65
2023/02/22 10:57:02;;;;;;;49.17;37.03;;;;;;;11.49;81.90;100795.78;5067317;28;20046;-64
2023/02/22 10:59:38;;;;;;;53.53;36.13;;;;;;;11.71;80.78;100804.00;5093489;28;20051;-64
2023/02/22 11:02:22;;;;;;;53.05;36.55;;;;;;;11.49;81.23;100809.56;5094682;27;20055;-64
2023/02/22 11:04:54;;;;;;;55.53;38.65;;;;;;;11.42;81.77;100804.47;5105173;27;20043;-64
2023/02/22 11:07:29;;;;;;;52.47;36.22;;;;;;;11.50;81.31;100800.16;5128435;27;20058;-64
2023/02/22 11:10:08;;;;;;;52.05;36.05;;;;;;;11.44;81.57;100804.19;5105493;27;20047;-64
2023/02/22 11:12:40;;;;;;;53.10;36.40;;;;;;;11.64;81.16;100801.72;5112090;27;20054;-62
2023/02/22 11:15:27;;;;;;;50.65;35.42;;;;;;;11.30;81.40;100802.31;5096483;27;20167;-63
2023/02/22 11:17:56;;;;;;;56.75;34.53;;;;;;;11.29;82.09;100797.94;5096168;27;20502;-65
2023/02/22 11:20:33;;;;;;;51.88;35.65;;;;;;;11.32;82.49;100804.75;5099777;27;20054;-65
2023/02/22 11:23:02;;;;;;;51.70;36.22;;;;;;;11.38;81.68;100795.25;5125620;27;20058;-65
2023/02/22 11:25:35;;;;;;;48.58;34.95;;;;;;;11.38;81.34;100794.41;5079315;27;20055;-65
2023/02/22 11:28:09;;;;;;;50.78;37.00;;;;;;;11.21;82.29;100792.38;5078602;28;20063;-65